createdAt,value
2023-03-12T00:00:11.470Z,10.30
2023-03-12T00:02:59.404Z,11.20
2023-03-12T00:05:27.267Z,12.10
2023-03-12T00:07:59.814Z,12.93
2023-03-12T00:10:27.925Z,13.43
2023-03-12T00:12:55.961Z,15.80
2023-03-12T00:15:23.967Z,13.33
2023-03-12T00:17:52.218Z,10.40
2023-03-12T00:20:20.353Z,15.20
2023-03-12T00:22:48.354Z,13.20
2023-03-12T00:25:17.335Z,14.17
2023-03-12T00:27:45.182Z,14.93
2023-03-12T00:30:13.212Z,14.33
2023-03-12T00:32:41.427Z,11.87
2023-03-12T00:35:09.330Z,11.27
2023-03-12T00:37:37.938Z,16.90
2023-03-12T00:40:08.690Z,12.83
2023-03-12T00:42:36.958Z,12.43
2023-03-12T00:45:04.777Z,13.67
2023-03-12T00:47:32.863Z,14.30
2023-03-12T00:50:00.591Z,15.70
2023-03-12T00:52:29.305Z,12.17
2023-03-12T00:54:58.988Z,10.90
2023-03-12T00:57:26.995Z,11.43
2023-03-12T00:59:54.668Z,8.17
2023-03-12T01:02:22.876Z,12.53
2023-03-12T01:04:50.242Z,8.70
2023-03-12T01:07:18.362Z,10.40
2023-03-12T01:09:45.964Z,9.10
2023-03-12T01:12:13.868Z,8.83
2023-03-12T01:14:41.492Z,5.67
2023-03-12T01:17:09.557Z,10.33
2023-03-12T01:19:37.238Z,10.80
2023-03-12T01:22:05.317Z,8.67
2023-03-12T01:24:33.045Z,7.67
2023-03-12T01:27:01.022Z,7.70
2023-03-12T01:29:28.627Z,8.13
2023-03-12T01:31:58.055Z,8.87
2023-03-12T01:34:25.630Z,10.03
2023-03-12T01:36:53.791Z,11.43
2023-03-12T01:39:21.408Z,13.40
2023-03-12T01:41:49.266Z,13.27
2023-03-12T01:44:17.022Z,10.17
2023-03-12T01:46:46.381Z,7.63
2023-03-12T01:49:31.974Z,10.13
2023-03-12T01:52:14.761Z,13.13
2023-03-12T01:55:02.892Z,14.90
2023-03-12T01:57:43.873Z,9.33
2023-03-12T02:00:15.674Z,9.07
2023-03-12T02:02:44.913Z,8.87
2023-03-12T02:05:33.589Z,8.03
2023-03-12T02:08:01.610Z,8.90
2023-03-12T02:10:29.620Z,9.40
2023-03-12T02:12:57.811Z,10.17
2023-03-12T02:15:25.425Z,25.60
2023-03-12T02:17:54.350Z,16.10
2023-03-12T02:20:47.031Z,14.83
2023-03-12T02:23:27.892Z,14.10
2023-03-12T02:25:56.753Z,12.57
2023-03-12T02:28:28.909Z,12.77
2023-03-12T02:31:00.580Z,8.63
2023-03-12T02:33:28.601Z,7.13
2023-03-12T02:35:56.961Z,10.17
2023-03-12T02:38:45.606Z,10.83
2023-03-12T02:41:24.566Z,9.07
2023-03-12T02:44:15.696Z,13.90
2023-03-12T02:46:49.319Z,7.50
2023-03-12T02:49:19.120Z,6.17
2023-03-12T02:51:47.448Z,7.37
2023-03-12T02:54:18.437Z,11.10
2023-03-12T02:56:46.494Z,11.60
2023-03-12T02:59:15.529Z,6.87
2023-03-12T03:01:45.313Z,10.33
2023-03-12T03:04:14.038Z,7.93
2023-03-12T03:06:43.110Z,11.33
2023-03-12T03:09:11.105Z,7.13
2023-03-12T03:11:38.926Z,6.00
2023-03-12T03:14:08.221Z,11.83
2023-03-12T03:16:36.491Z,6.77
2023-03-12T03:19:04.751Z,12.77
2023-03-12T03:21:33.188Z,7.50
2023-03-12T03:24:01.331Z,6.67
2023-03-12T03:26:29.049Z,7.30
2023-03-12T03:28:57.174Z,7.57
2023-03-12T03:31:24.885Z,8.03
2023-03-12T03:33:53.036Z,8.00
2023-03-12T03:36:20.849Z,7.73
2023-03-12T03:38:59.988Z,6.87
2023-03-12T03:41:28.037Z,7.57
2023-03-12T03:43:59.067Z,8.53
2023-03-12T03:46:27.458Z,5.77
2023-03-12T03:49:01.365Z,8.07
2023-03-12T03:51:30.396Z,12.70
2023-03-12T03:54:02.693Z,11.13
2023-03-12T03:56:30.870Z,15.17
2023-03-12T03:59:02.128Z,18.27
2023-03-12T04:01:34.290Z,10.17
2023-03-12T04:04:03.778Z,6.87
2023-03-12T04:06:34.002Z,8.87
2023-03-12T04:09:02.191Z,20.10
2023-03-12T04:11:31.281Z,12.70
2023-03-12T04:14:00.411Z,8.47
2023-03-12T04:16:31.540Z,16.33
2023-03-12T04:19:00.266Z,6.33
2023-03-12T04:21:28.689Z,10.80
2023-03-12T04:23:58.065Z,6.17
2023-03-12T04:26:30.974Z,9.83
2023-03-12T04:29:01.195Z,12.90
2023-03-12T04:31:29.171Z,11.93
2023-03-12T04:33:57.472Z,12.63
2023-03-12T04:36:26.111Z,12.13
2023-03-12T04:38:56.590Z,9.00
2023-03-12T04:41:28.945Z,7.30
2023-03-12T04:44:07.588Z,7.30
2023-03-12T04:46:37.475Z,6.90
2023-03-12T04:49:05.952Z,8.07
2023-03-12T04:51:36.105Z,5.87
2023-03-12T04:54:05.716Z,6.57
2023-03-12T04:56:34.628Z,6.50
2023-03-12T04:59:03.240Z,4.77
2023-03-12T05:01:33.732Z,8.53
2023-03-12T05:04:05.692Z,6.13
2023-03-12T05:06:33.697Z,7.17
2023-03-12T05:09:01.683Z,8.03
2023-03-12T05:11:29.568Z,5.93
2023-03-12T05:13:57.802Z,7.30
2023-03-12T05:16:25.168Z,8.13
2023-03-12T05:18:53.200Z,6.47
2023-03-12T05:21:22.825Z,6.60
2023-03-12T05:23:54.573Z,10.07
2023-03-12T05:26:32.312Z,11.93
2023-03-12T05:29:07.750Z,15.87
2023-03-12T05:31:36.701Z,5.33
2023-03-12T05:34:06.643Z,11.93
2023-03-12T05:36:38.747Z,10.43
2023-03-12T05:39:07.102Z,5.10
2023-03-12T05:41:35.783Z,5.57
2023-03-12T05:44:14.156Z,14.87
2023-03-12T05:46:43.724Z,10.83
2023-03-12T05:49:11.927Z,9.67
2023-03-12T05:51:39.641Z,6.57
2023-03-12T05:54:08.845Z,7.17
2023-03-12T05:56:37.680Z,11.07
2023-03-12T05:59:06.233Z,12.47
2023-03-12T06:02:26.239Z,14.93
2023-03-12T06:04:55.461Z,12.40
2023-03-12T06:07:23.223Z,10.23
2023-03-12T06:09:51.184Z,11.40
2023-03-12T06:12:19.080Z,14.20
2023-03-12T06:14:47.243Z,14.53
2023-03-12T06:17:15.338Z,14.87
2023-03-12T06:19:44.098Z,10.37
2023-03-12T06:22:11.912Z,10.60
2023-03-12T06:24:42.667Z,17.57
2023-03-12T06:27:10.510Z,12.27
2023-03-12T06:29:38.516Z,10.87
2023-03-12T06:32:05.922Z,11.10
2023-03-12T06:34:34.273Z,6.40
2023-03-12T06:37:02.032Z,14.10
2023-03-12T06:39:30.279Z,10.07
2023-03-12T06:41:57.960Z,8.37
2023-03-12T06:44:26.071Z,10.13
2023-03-12T06:46:53.943Z,6.87
2023-03-12T06:49:22.424Z,18.27
2023-03-12T06:51:50.329Z,15.77
2023-03-12T06:54:18.514Z,67.43
2023-03-12T06:56:46.427Z,19.33
2023-03-12T06:59:14.599Z,19.13
2023-03-12T07:01:42.847Z,12.07
2023-03-12T07:04:11.437Z,8.03
2023-03-12T07:06:39.419Z,21.13
2023-03-12T07:09:07.296Z,27.50
2023-03-12T07:11:35.409Z,5.73
2023-03-12T07:14:03.834Z,9.03
2023-03-12T07:16:32.012Z,9.20
2023-03-12T07:19:00.368Z,10.60
2023-03-12T07:21:28.385Z,27.50
2023-03-12T07:23:56.440Z,19.53
2023-03-12T07:26:24.264Z,26.83
2023-03-12T07:28:52.529Z,25.43
2023-03-12T07:31:20.204Z,14.07
2023-03-12T07:33:48.456Z,30.23
2023-03-12T07:36:16.588Z,17.77
2023-03-12T07:38:44.803Z,18.53
2023-03-12T07:41:12.659Z,20.50
2023-03-12T07:43:42.251Z,14.73
2023-03-12T07:46:10.264Z,16.30
2023-03-12T07:48:39.539Z,24.57
2023-03-12T07:51:08.822Z,16.33
2023-03-12T07:53:37.072Z,11.80
2023-03-12T07:56:05.134Z,13.50
2023-03-12T07:58:36.559Z,13.13
2023-03-12T08:01:05.071Z,7.87
2023-03-12T08:03:33.772Z,9.87
2023-03-12T08:06:03.635Z,11.27
2023-03-12T08:08:31.860Z,15.67
2023-03-12T08:11:00.136Z,34.00
2023-03-12T08:13:28.491Z,12.37
2023-03-12T08:15:56.245Z,17.17
2023-03-12T08:18:24.979Z,104.23
2023-03-12T08:20:54.311Z,68.73
2023-03-12T08:23:22.520Z,95.27
2023-03-12T08:25:50.737Z,33.70
2023-03-12T08:28:20.468Z,107.87
2023-03-12T08:31:00.969Z,35.73
2023-03-12T08:33:30.189Z,29.07
2023-03-12T08:35:58.618Z,26.40
2023-03-12T08:38:30.200Z,11.57
2023-03-12T08:40:59.726Z,31.70
2023-03-12T08:43:29.425Z,14.80
2023-03-12T08:45:59.893Z,17.58
2023-03-12T08:48:30.175Z,14.23
2023-03-12T08:51:04.920Z,15.27
2023-03-12T08:53:35.363Z,19.65
2023-03-12T08:56:04.410Z,17.42
2023-03-12T08:58:32.986Z,11.95
2023-03-12T09:01:00.672Z,12.50
2023-03-12T09:03:28.766Z,9.35
2023-03-12T09:06:11.486Z,12.20
2023-03-12T09:08:43.947Z,15.40
2023-03-12T09:11:13.481Z,16.45
2023-03-12T09:14:16.900Z,6.95
2023-03-12T09:16:31.766Z,15.98
2023-03-12T09:19:00.353Z,10.43
2023-03-12T09:21:28.770Z,5.57
2023-03-12T09:23:56.766Z,17.38
2023-03-12T09:26:24.384Z,10.60
2023-03-12T09:28:51.718Z,16.90
2023-03-12T09:31:19.924Z,14.23
2023-03-12T09:33:47.684Z,13.60
2023-03-12T09:36:15.809Z,9.10
2023-03-12T09:38:43.161Z,13.63
2023-03-12T09:41:21.963Z,12.80
2023-03-12T09:44:02.405Z,12.10
2023-03-12T09:46:57.957Z,11.97
2023-03-12T09:49:40.908Z,12.32
2023-03-12T09:52:34.357Z,17.53
2023-03-12T09:55:15.424Z,10.97
2023-03-12T09:57:45.095Z,7.47
2023-03-12T10:00:20.818Z,14.33
2023-03-12T10:03:10.775Z,11.80
2023-03-12T10:06:04.162Z,11.20
2023-03-12T10:08:55.191Z,13.23
2023-03-12T10:11:32.468Z,18.27
2023-03-12T10:14:08.922Z,17.60
2023-03-12T10:16:45.364Z,11.83
2023-03-12T10:19:39.830Z,21.17
2023-03-12T10:22:20.134Z,45.40
2023-03-12T10:25:22.148Z,21.27
2023-03-12T10:27:50.830Z,12.33
2023-03-12T10:30:24.875Z,13.23
2023-03-12T10:32:57.967Z,7.47
2023-03-12T10:35:30.855Z,18.83
2023-03-12T10:38:04.332Z,8.40
2023-03-12T10:40:34.956Z,5.10
2023-03-12T10:43:04.138Z,7.67
2023-03-12T10:45:56.774Z,6.80
2023-03-12T10:48:26.348Z,11.10
2023-03-12T10:51:08.430Z,11.27
2023-03-12T10:53:45.004Z,13.17
2023-03-12T10:56:15.653Z,12.17
2023-03-12T10:58:48.577Z,6.60
2023-03-12T11:01:22.632Z,9.17
2023-03-12T11:03:51.867Z,8.93
2023-03-12T11:06:29.663Z,8.17
2023-03-12T11:09:21.928Z,11.20
2023-03-12T11:11:51.116Z,11.80
2023-03-12T11:14:24.814Z,7.97
2023-03-12T11:16:54.264Z,8.13
2023-03-12T11:19:34.163Z,12.60
2023-03-12T11:22:11.924Z,14.27
2023-03-12T11:25:20.072Z,8.50
2023-03-12T11:27:54.207Z,11.90
2023-03-12T11:30:32.975Z,8.05
2023-03-12T11:33:02.532Z,8.95
2023-03-12T11:35:44.929Z,10.40
2023-03-12T11:38:19.456Z,10.70
2023-03-12T11:40:55.675Z,7.97
2023-03-12T11:43:44.273Z,4.20
2023-03-12T11:46:18.227Z,10.20
2023-03-12T11:49:09.617Z,8.43
2023-03-12T11:52:11.766Z,7.50
2023-03-12T11:55:16.708Z,9.73
2023-03-12T11:58:02.218Z,26.87
2023-03-12T12:01:05.742Z,9.60
2023-03-12T12:04:00.857Z,17.33
2023-03-12T12:06:58.046Z,22.17
2023-03-12T12:09:43.637Z,12.67
2023-03-12T12:12:38.981Z,17.77
2023-03-12T12:15:13.422Z,8.50
2023-03-12T12:17:55.142Z,12.40
2023-03-12T12:20:49.256Z,12.13
2023-03-12T12:23:47.576Z,7.45
2023-03-12T12:26:49.169Z,14.00
2023-03-12T12:29:23.424Z,10.85
2023-03-12T12:31:59.412Z,9.52
2023-03-12T12:35:00.995Z,6.70
2023-03-12T12:37:52.630Z,5.20
2023-03-12T12:40:33.284Z,5.72
2023-03-12T12:43:29.339Z,5.15
2023-03-12T12:46:05.024Z,8.23
2023-03-12T12:48:49.409Z,8.55
2023-03-12T12:51:21.722Z,11.25
2023-03-12T12:54:05.305Z,8.10
2023-03-12T12:56:43.928Z,5.35
2023-03-12T12:59:36.454Z,5.30
2023-03-12T13:02:13.713Z,7.05
2023-03-12T13:04:42.109Z,13.23
2023-03-12T13:07:13.237Z,12.70
2023-03-12T13:09:47.580Z,9.55
2023-03-12T13:12:35.651Z,10.85
2023-03-12T13:15:29.311Z,16.00
2023-03-12T13:18:00.269Z,21.45
2023-03-12T13:21:06.959Z,13.43
2023-03-12T13:23:39.391Z,7.97
2023-03-12T13:26:14.992Z,13.45
2023-03-12T13:29:06.164Z,14.88
2023-03-12T13:31:40.394Z,10.63
2023-03-12T13:34:17.816Z,9.50
2023-03-12T13:37:06.668Z,17.67
2023-03-12T13:39:36.508Z,10.30
2023-03-12T13:42:23.180Z,11.52
2023-03-12T13:44:53.638Z,10.43
2023-03-12T13:47:32.951Z,8.40
2023-03-12T13:50:04.715Z,12.38
2023-03-12T13:52:41.924Z,9.13
2023-03-12T13:55:29.497Z,10.07
2023-03-12T13:58:21.905Z,16.67
2023-03-12T14:01:03.488Z,14.57
2023-03-12T14:03:39.848Z,10.15
2023-03-12T14:06:23.634Z,12.63
2023-03-12T14:09:01.607Z,12.60
2023-03-12T14:11:52.085Z,10.57
2023-03-12T14:14:49.271Z,13.40
2023-03-12T14:17:28.113Z,9.02
2023-03-12T14:20:19.119Z,10.85
2023-03-12T14:23:09.935Z,12.43
2023-03-12T14:25:45.952Z,20.40
2023-03-12T14:28:20.056Z,36.20
2023-03-12T14:30:48.021Z,21.70
2023-03-12T14:33:19.450Z,9.47
2023-03-12T14:35:57.487Z,20.67
2023-03-12T14:38:33.598Z,7.27
2023-03-12T14:41:05.718Z,5.90
2023-03-12T14:43:35.983Z,14.63
2023-03-12T14:46:13.761Z,9.50
2023-03-12T14:48:43.071Z,9.03
2023-03-12T14:51:24.432Z,10.63
2023-03-12T14:53:53.458Z,17.37
2023-03-12T14:56:31.305Z,8.23
2023-03-12T14:59:02.351Z,11.47
2023-03-12T15:01:33.313Z,7.90
2023-03-12T15:04:12.190Z,25.33
2023-03-12T15:07:04.193Z,18.57
2023-03-12T15:09:36.401Z,21.80
2023-03-12T15:12:18.640Z,14.23
2023-03-12T15:14:49.016Z,8.63
2023-03-12T15:17:19.867Z,10.57
2023-03-12T15:19:49.537Z,12.73
2023-03-12T15:22:21.153Z,11.90
2023-03-12T15:24:49.468Z,12.27
2023-03-12T15:27:28.619Z,14.43
2023-03-12T15:29:59.466Z,14.60
2023-03-12T15:32:31.340Z,21.77
2023-03-12T15:35:00.218Z,7.83
2023-03-12T15:37:38.118Z,12.70
2023-03-12T15:40:20.026Z,17.90
2023-03-12T15:42:49.028Z,9.07
2023-03-12T15:45:23.706Z,6.30
2023-03-12T15:47:54.702Z,5.43
2023-03-12T15:50:30.307Z,12.40
2023-03-12T15:53:03.925Z,8.40
2023-03-12T15:55:36.552Z,10.57
2023-03-12T15:58:28.198Z,12.40
2023-03-12T16:01:14.283Z,9.13
2023-03-12T16:03:46.562Z,9.30
2023-03-12T16:06:19.229Z,8.60
2023-03-12T16:09:01.005Z,14.70
2023-03-12T16:11:32.685Z,29.40
2023-03-12T16:14:19.998Z,20.03
2023-03-12T16:16:48.690Z,9.60
2023-03-12T16:19:19.244Z,10.33
2023-03-12T16:21:48.717Z,6.00
2023-03-12T16:24:16.936Z,17.80
2023-03-12T16:26:56.294Z,7.60
2023-03-12T16:29:33.175Z,9.17
2023-03-12T16:32:01.791Z,16.57
2023-03-12T16:34:29.481Z,11.33
2023-03-12T16:36:57.990Z,53.87
2023-03-12T16:39:30.348Z,22.07
2023-03-12T16:41:58.777Z,11.70
2023-03-12T16:44:31.631Z,4.87
2023-03-12T16:47:01.017Z,7.27
2023-03-12T16:49:30.563Z,6.93
2023-03-12T16:52:02.750Z,7.97
2023-03-12T16:54:32.839Z,8.53
2023-03-12T16:57:03.120Z,4.60
2023-03-12T16:59:34.160Z,5.40
2023-03-12T17:02:14.963Z,4.90
2023-03-12T17:04:43.928Z,8.40
2023-03-12T17:07:13.223Z,13.07
2023-03-12T17:09:42.583Z,6.57
2023-03-12T17:12:30.050Z,8.87
2023-03-12T17:15:01.333Z,6.97
2023-03-12T17:17:31.430Z,9.03
2023-03-12T17:20:00.775Z,7.03
2023-03-12T17:22:30.604Z,6.40
2023-03-12T17:25:00.666Z,10.27
2023-03-12T17:27:29.991Z,11.03
2023-03-12T17:29:59.790Z,19.07
2023-03-12T17:32:31.105Z,25.00
2023-03-12T17:35:03.822Z,16.03
2023-03-12T17:37:33.836Z,10.33
2023-03-12T17:40:08.216Z,9.87
2023-03-12T17:42:39.194Z,15.07
2023-03-12T17:45:10.087Z,13.47
2023-03-12T17:47:40.055Z,38.13
2023-03-12T17:50:10.824Z,22.27
2023-03-12T17:52:41.836Z,29.63
2023-03-12T17:55:11.853Z,24.90
2023-03-12T17:57:43.449Z,28.57
2023-03-12T18:00:14.448Z,22.53
2023-03-12T18:02:47.026Z,24.23
2023-03-12T18:05:17.939Z,18.67
2023-03-12T18:07:52.396Z,28.17
2023-03-12T18:10:23.558Z,19.57
2023-03-12T18:12:57.140Z,21.83
2023-03-12T18:15:26.528Z,19.73
2023-03-12T18:17:58.450Z,18.00
2023-03-12T18:20:38.736Z,15.43
2023-03-12T18:23:10.122Z,16.97
2023-03-12T18:25:39.676Z,12.53
2023-03-12T18:28:10.572Z,15.03
2023-03-12T18:30:39.728Z,11.93
2023-03-12T18:33:10.160Z,9.67
2023-03-12T18:35:39.646Z,14.00
2023-03-12T18:38:09.296Z,27.17
2023-03-12T18:40:38.536Z,11.87
2023-03-12T18:43:08.064Z,11.37
2023-03-12T18:45:44.366Z,10.47
2023-03-12T18:48:12.963Z,16.33
2023-03-12T18:50:41.277Z,26.80
2023-03-12T18:53:09.748Z,14.63
2023-03-12T18:55:37.706Z,24.17
2023-03-12T18:58:06.230Z,26.00
2023-03-12T19:00:34.759Z,18.33
2023-03-12T19:03:03.556Z,23.30
2023-03-12T19:05:32.076Z,19.80
2023-03-12T19:08:02.274Z,23.63
2023-03-12T19:10:30.756Z,21.93
2023-03-12T19:12:59.210Z,37.90
2023-03-12T19:15:27.490Z,66.60
2023-03-12T19:17:55.592Z,91.93
2023-03-12T19:20:24.237Z,73.07
2023-03-12T19:22:53.846Z,39.00
2023-03-12T19:25:22.599Z,29.07
2023-03-12T19:27:51.378Z,25.77
2023-03-12T19:30:19.678Z,32.27
2023-03-12T19:32:49.478Z,25.47
2023-03-12T19:35:17.768Z,25.27
2023-03-12T19:37:46.397Z,25.03
2023-03-12T19:40:14.660Z,33.87
2023-03-12T19:42:43.394Z,26.03
2023-03-12T19:45:12.168Z,30.70
2023-03-12T19:47:41.140Z,29.67
2023-03-12T19:50:11.318Z,38.83
2023-03-12T19:52:39.509Z,27.97
2023-03-12T19:55:09.766Z,20.87
2023-03-12T19:57:37.945Z,15.93
2023-03-12T20:00:10.581Z,20.30
2023-03-12T20:02:39.112Z,14.97
2023-03-12T20:05:07.666Z,22.37
2023-03-12T20:07:35.773Z,16.70
2023-03-12T20:10:03.547Z,17.03
2023-03-12T20:12:32.549Z,19.30
2023-03-12T20:14:59.884Z,16.93
2023-03-12T20:17:28.057Z,18.57
2023-03-12T20:19:56.195Z,26.33
2023-03-12T20:22:26.297Z,21.47
2023-03-12T20:24:54.420Z,19.03
2023-03-12T20:27:22.686Z,19.37
2023-03-12T20:29:51.165Z,16.43
2023-03-12T20:32:19.653Z,16.27
2023-03-12T20:34:47.749Z,20.80
2023-03-12T20:37:16.166Z,24.93
2023-03-12T20:39:44.993Z,20.67
2023-03-12T20:42:12.759Z,20.87
2023-03-12T20:44:40.187Z,17.93
2023-03-12T20:47:08.147Z,19.63
2023-03-12T20:49:35.593Z,19.63
2023-03-12T20:52:03.640Z,21.60
2023-03-12T20:54:32.846Z,20.77
2023-03-12T20:57:00.571Z,25.47
2023-03-12T20:59:30.120Z,28.57
2023-03-12T21:01:58.999Z,20.80
2023-03-12T21:04:26.627Z,19.93
2023-03-12T21:06:56.007Z,19.30
2023-03-12T21:09:23.696Z,18.50
2023-03-12T21:11:51.719Z,25.27
2023-03-12T21:14:19.226Z,22.20
2023-03-12T21:16:47.187Z,24.93
2023-03-12T21:19:15.075Z,22.90
2023-03-12T21:21:42.923Z,22.20
2023-03-12T21:24:10.493Z,27.07
2023-03-12T21:26:38.437Z,21.23
2023-03-12T21:29:05.837Z,24.47
2023-03-12T21:31:33.842Z,26.70
2023-03-12T21:34:01.751Z,30.73
2023-03-12T21:36:30.189Z,23.80
2023-03-12T21:38:57.518Z,23.37
2023-03-12T21:41:25.463Z,33.43
2023-03-12T21:43:53.107Z,22.77
2023-03-12T21:46:24.863Z,27.87
2023-03-12T21:48:52.453Z,25.77
2023-03-12T21:51:20.320Z,26.37
2023-03-12T21:53:47.693Z,26.17
2023-03-12T21:56:15.439Z,29.13
2023-03-12T21:58:42.759Z,21.37
2023-03-12T22:01:13.264Z,22.33
2023-03-12T22:03:42.141Z,27.30
2023-03-12T22:06:10.853Z,22.27
2023-03-12T22:08:38.793Z,27.80
2023-03-12T22:11:07.354Z,22.83
2023-03-12T22:13:34.686Z,28.10
2023-03-12T22:16:06.921Z,23.47
2023-03-12T22:18:37.613Z,23.37
2023-03-12T22:21:07.610Z,26.57
2023-03-12T22:23:36.288Z,26.50
2023-03-12T22:26:06.012Z,21.57
2023-03-12T22:28:33.965Z,19.43
2023-03-12T22:31:05.095Z,25.63
2023-03-12T22:33:33.080Z,24.93
2023-03-12T22:36:00.560Z,27.80
2023-03-12T22:38:27.750Z,26.57
2023-03-12T22:40:55.997Z,22.67
2023-03-12T22:43:25.898Z,19.77
2023-03-12T22:45:56.384Z,21.63
2023-03-12T22:48:23.648Z,27.87
2023-03-12T22:50:54.730Z,19.53
2023-03-12T22:53:22.081Z,22.70
2023-03-12T22:56:16.264Z,20.67
2023-03-12T22:58:43.494Z,22.67
2023-03-12T23:01:16.330Z,24.37
2023-03-12T23:03:45.042Z,23.37
2023-03-12T23:06:15.672Z,21.37
2023-03-12T23:08:43.907Z,25.87
2023-03-12T23:11:12.548Z,26.40
2023-03-12T23:13:41.758Z,26.13
2023-03-12T23:16:11.945Z,30.20
2023-03-12T23:18:39.369Z,34.13
2023-03-12T23:21:09.709Z,32.20
2023-03-12T23:23:39.594Z,27.83
2023-03-12T23:26:07.809Z,29.10
2023-03-12T23:28:35.134Z,27.77
2023-03-12T23:31:06.304Z,28.67
2023-03-12T23:33:34.849Z,25.53
2023-03-12T23:36:07.774Z,27.37
2023-03-12T23:38:37.617Z,30.63
2023-03-12T23:41:13.183Z,28.33
2023-03-12T23:43:40.826Z,32.83
2023-03-12T23:46:10.136Z,28.83
2023-03-12T23:48:38.639Z,27.93
2023-03-12T23:51:15.241Z,27.77
2023-03-12T23:53:45.173Z,23.17
2023-03-12T23:56:15.443Z,25.17
2023-03-12T23:58:43.724Z,25.27
